Adams, Nebraska
Current Conditions -  °F | °C
As of 4:15 PM on Friday 31 Oct 2014 (Local Time) from KBIE Reporting Station
Clear Clear  
Wind Chill: 40°   Ceiling: Unl
Heat Index: 44°   Visibility: 10mi
Dew Point: 16°   Wind: 6mph
Humidity: 33%   Direction: 30°NNE
Pressure: 30.47"   Gusts: NA
Location:  40.46°N, 96.51°W
Report Text: KBIE 312115Z AUTO 03005KT 10SM CLR 07/M09 A3047 RMK AO2 T00651090
Loading
Personal Weather Stations






























Interactive Weather Map
Tropical Storm Tracking
New forecast layout! Learn more

10-Day Weather Forecast

Advertisements
Track Severe Weather on mobile